createdAt,value
2022-12-25T00:01:45.761Z,9.18
2022-12-25T00:04:12.260Z,9.70
2022-12-25T00:06:39.793Z,10.90
2022-12-25T00:09:06.236Z,9.10
2022-12-25T00:11:32.654Z,9.98
2022-12-25T00:13:59.206Z,9.70
2022-12-25T00:16:26.791Z,10.80
2022-12-25T00:18:54.082Z,9.43
2022-12-25T00:21:21.767Z,11.05
2022-12-25T00:23:52.719Z,10.82
2022-12-25T00:26:19.096Z,9.82
2022-12-25T00:28:45.794Z,10.82
2022-12-25T00:31:14.893Z,10.30
2022-12-25T00:33:44.445Z,10.00
2022-12-25T00:36:12.464Z,10.90
2022-12-25T00:38:40.401Z,10.43
2022-12-25T00:41:15.493Z,12.02
2022-12-25T00:43:41.891Z,11.23
2022-12-25T00:46:10.124Z,11.55
2022-12-25T00:48:36.790Z,11.55
2022-12-25T00:51:06.850Z,10.68
2022-12-25T00:53:33.712Z,11.80
2022-12-25T00:56:02.617Z,12.53
2022-12-25T00:58:31.088Z,11.13
2022-12-25T01:00:57.769Z,11.18
2022-12-25T01:03:24.686Z,12.43
2022-12-25T01:06:02.992Z,14.48
2022-12-25T01:08:31.541Z,11.43
2022-12-25T01:11:00.224Z,12.65
2022-12-25T01:13:27.748Z,12.55
2022-12-25T01:15:54.525Z,12.63
2022-12-25T01:18:22.434Z,12.60
2022-12-25T01:20:49.060Z,13.03
2022-12-25T01:23:16.111Z,12.95
2022-12-25T01:25:42.780Z,11.80
2022-12-25T01:28:09.343Z,11.45
2022-12-25T01:30:35.725Z,12.25
2022-12-25T01:33:02.201Z,13.17
2022-12-25T01:35:28.609Z,12.68
2022-12-25T01:37:55.040Z,12.30
2022-12-25T01:40:21.384Z,11.93
2022-12-25T01:42:47.791Z,11.60
2022-12-25T01:45:31.654Z,11.33
2022-12-25T01:47:58.180Z,10.88
2022-12-25T01:50:24.915Z,11.10
2022-12-25T01:52:51.994Z,11.20
2022-12-25T01:55:18.475Z,9.80
2022-12-25T01:57:45.755Z,10.87
2022-12-25T02:00:13.658Z,10.50
2022-12-25T02:02:41.540Z,11.45
2022-12-25T02:05:14.171Z,11.40
2022-12-25T02:07:42.143Z,12.65
2022-12-25T02:10:11.086Z,12.00
2022-12-25T02:12:38.653Z,13.32
2022-12-25T02:15:20.886Z,14.15
2022-12-25T02:17:53.127Z,14.05
2022-12-25T02:20:51.809Z,12.65
2022-12-25T02:23:42.083Z,11.97
2022-12-25T02:26:31.705Z,12.98
2022-12-25T02:29:30.456Z,11.77
2022-12-25T02:32:07.772Z,12.38
2022-12-25T02:34:43.381Z,11.48
2022-12-25T02:37:27.748Z,11.27
2022-12-25T02:40:07.635Z,14.18
2022-12-25T02:43:24.762Z,12.70
2022-12-25T02:45:59.493Z,12.15
2022-12-25T02:48:31.156Z,12.68
2022-12-25T02:51:01.972Z,12.87
2022-12-25T02:53:29.196Z,13.15
2022-12-25T02:55:56.922Z,12.93
2022-12-25T02:58:25.389Z,12.43
2022-12-25T03:01:04.528Z,12.95
2022-12-25T03:03:34.686Z,12.93
2022-12-25T03:06:03.789Z,12.77
2022-12-25T03:08:37.194Z,11.85
2022-12-25T03:11:07.569Z,12.48
2022-12-25T03:13:39.538Z,11.40
2022-12-25T03:16:06.780Z,12.10
2022-12-25T03:18:34.170Z,12.90
2022-12-25T03:21:00.960Z,12.98
2022-12-25T03:23:34.602Z,11.85
2022-12-25T03:26:01.129Z,12.68
2022-12-25T03:28:27.489Z,12.73
2022-12-25T03:31:04.182Z,12.68
2022-12-25T03:33:49.363Z,13.27
2022-12-25T03:36:32.440Z,13.68
2022-12-25T03:39:02.989Z,13.35
2022-12-25T03:41:48.851Z,13.47
2022-12-25T03:44:21.527Z,13.10
2022-12-25T03:46:54.519Z,15.40
2022-12-25T03:49:26.410Z,14.00
2022-12-25T03:51:57.307Z,13.18
2022-12-25T03:54:30.591Z,14.13
2022-12-25T03:56:57.419Z,13.25
2022-12-25T03:59:24.490Z,13.70
2022-12-25T04:01:51.936Z,13.38
2022-12-25T04:04:18.355Z,14.55
2022-12-25T04:06:45.225Z,13.93
2022-12-25T04:09:11.623Z,14.77
2022-12-25T04:11:37.970Z,13.73
2022-12-25T04:14:04.317Z,16.02
2022-12-25T04:16:30.669Z,15.13
2022-12-25T04:18:56.978Z,17.07
2022-12-25T04:21:24.331Z,19.02
2022-12-25T04:23:50.770Z,17.40
2022-12-25T04:26:17.173Z,17.13
2022-12-25T04:28:43.752Z,18.20
2022-12-25T04:31:10.141Z,18.13
2022-12-25T04:33:36.717Z,19.88
2022-12-25T04:36:03.351Z,18.38
2022-12-25T04:38:29.704Z,17.77
2022-12-25T04:40:56.056Z,20.65
2022-12-25T04:43:22.519Z,16.27
2022-12-25T04:45:56.358Z,16.00
2022-12-25T04:48:23.378Z,17.80
2022-12-25T04:50:49.739Z,15.88
2022-12-25T04:53:17.018Z,14.20
2022-12-25T04:55:43.812Z,13.07
2022-12-25T04:58:10.232Z,13.05
2022-12-25T05:00:37.204Z,14.57
2022-12-25T05:03:03.650Z,13.23
2022-12-25T05:05:30.449Z,13.10
2022-12-25T05:07:57.307Z,12.43
2022-12-25T05:10:24.545Z,10.90
2022-12-25T05:12:50.969Z,10.32
2022-12-25T05:15:17.701Z,10.82
2022-12-25T05:17:44.016Z,9.93
2022-12-25T05:20:10.507Z,11.20
2022-12-25T05:22:36.957Z,9.52
2022-12-25T05:25:03.481Z,8.88
2022-12-25T05:27:29.817Z,8.45
2022-12-25T05:29:56.224Z,9.35
2022-12-25T05:32:22.565Z,7.87
2022-12-25T05:34:48.951Z,8.68
2022-12-25T05:37:15.274Z,8.90
2022-12-25T05:39:41.670Z,8.73
2022-12-25T05:42:08.103Z,8.02
2022-12-25T05:44:34.779Z,8.47
2022-12-25T05:47:01.220Z,7.63
2022-12-25T05:49:27.713Z,7.68
2022-12-25T05:51:54.123Z,7.30
2022-12-25T05:54:20.566Z,6.75
2022-12-25T05:56:46.909Z,6.87
2022-12-25T05:59:13.273Z,7.30
2022-12-25T06:01:39.780Z,7.30
2022-12-25T06:04:12.185Z,6.65
2022-12-25T06:06:38.916Z,6.68
2022-12-25T06:09:05.336Z,6.73
2022-12-25T06:11:31.774Z,6.57
2022-12-25T06:13:58.236Z,6.40
2022-12-25T06:16:24.600Z,6.68
2022-12-25T06:18:51.604Z,6.40
2022-12-25T06:21:18.120Z,6.83
2022-12-25T06:23:45.086Z,6.70
2022-12-25T06:26:18.091Z,6.32
2022-12-25T06:28:44.664Z,5.97
2022-12-25T06:31:17.209Z,6.45
2022-12-25T06:33:43.804Z,6.30
2022-12-25T06:36:16.130Z,5.93
2022-12-25T06:38:42.729Z,6.15
2022-12-25T06:41:11.936Z,5.78
2022-12-25T06:43:38.711Z,6.07
2022-12-25T06:46:07.711Z,5.77
2022-12-25T06:48:35.226Z,5.68
2022-12-25T06:51:02.005Z,5.80
2022-12-25T06:53:32.283Z,5.93
2022-12-25T06:56:05.325Z,5.72
2022-12-25T06:58:32.304Z,5.80
2022-12-25T07:00:58.886Z,5.65
2022-12-25T07:03:28.372Z,6.97
2022-12-25T07:05:54.787Z,6.22
2022-12-25T07:08:21.083Z,7.25
2022-12-25T07:10:47.440Z,6.00
2022-12-25T07:13:13.888Z,6.20
2022-12-25T07:15:40.432Z,6.20
2022-12-25T07:18:08.006Z,6.32
2022-12-25T07:20:34.415Z,6.38
2022-12-25T07:23:00.812Z,6.43
2022-12-25T07:25:30.847Z,6.88
2022-12-25T07:28:00.135Z,6.72
2022-12-25T07:30:26.606Z,6.38
2022-12-25T07:32:53.020Z,6.30
2022-12-25T07:35:19.355Z,6.13
2022-12-25T07:37:45.665Z,6.75
2022-12-25T07:40:12.316Z,6.78
2022-12-25T07:42:38.628Z,6.97
2022-12-25T07:45:05.566Z,6.13
2022-12-25T07:47:31.960Z,5.90
2022-12-25T07:49:58.386Z,6.68
2022-12-25T07:52:24.809Z,7.05
2022-12-25T07:54:51.300Z,6.10
2022-12-25T07:57:17.610Z,6.15
2022-12-25T07:59:43.906Z,5.47
2022-12-25T08:02:11.364Z,5.70
2022-12-25T08:04:37.811Z,5.97
2022-12-25T08:07:04.241Z,5.60
2022-12-25T08:09:30.634Z,6.53
2022-12-25T08:11:56.924Z,6.13
2022-12-25T08:14:23.280Z,6.45
2022-12-25T08:16:49.655Z,6.53
2022-12-25T08:19:16.244Z,5.25
2022-12-25T08:21:42.611Z,5.75
2022-12-25T08:24:09.024Z,5.50
2022-12-25T08:26:35.388Z,5.15
2022-12-25T08:29:02.528Z,5.18
2022-12-25T08:31:30.435Z,6.20
2022-12-25T08:33:58.393Z,6.38
2022-12-25T08:36:25.104Z,6.20
2022-12-25T08:38:53.449Z,6.13
2022-12-25T08:41:22.068Z,6.28
2022-12-25T08:43:48.497Z,6.88
2022-12-25T08:46:15.197Z,6.25
2022-12-25T08:48:43.140Z,6.23
2022-12-25T08:51:14.347Z,5.70
2022-12-25T08:53:42.627Z,6.20
2022-12-25T08:56:09.564Z,6.53
2022-12-25T08:58:36.618Z,6.20
2022-12-25T09:01:03.747Z,6.10
2022-12-25T09:03:30.331Z,7.13
2022-12-25T09:06:05.643Z,6.68
2022-12-25T09:08:32.521Z,6.30
2022-12-25T09:11:07.546Z,6.07
2022-12-25T09:13:34.527Z,5.73
2022-12-25T09:16:08.807Z,6.72
2022-12-25T09:18:35.751Z,6.32
2022-12-25T09:21:05.171Z,6.97
2022-12-25T09:23:32.572Z,6.55
2022-12-25T09:26:03.972Z,6.57
2022-12-25T09:28:30.453Z,5.80
2022-12-25T09:30:57.070Z,5.30
2022-12-25T09:33:23.875Z,5.65
2022-12-25T09:35:58.400Z,6.20
2022-12-25T09:38:25.501Z,5.93
2022-12-25T09:41:18.098Z,5.10
2022-12-25T09:43:51.496Z,5.70
2022-12-25T09:46:21.710Z,5.53
2022-12-25T09:48:59.199Z,6.93
2022-12-25T09:51:29.434Z,7.47
2022-12-25T09:54:04.311Z,6.40
2022-12-25T09:56:33.259Z,6.05
2022-12-25T09:58:59.808Z,5.45
2022-12-25T10:01:35.715Z,6.60
2022-12-25T10:04:13.923Z,5.93
2022-12-25T10:06:52.428Z,6.15
2022-12-25T10:09:44.586Z,6.38
2022-12-25T10:12:32.665Z,5.35
2022-12-25T10:15:33.751Z,5.78
2022-12-25T10:18:09.387Z,5.40
2022-12-25T10:20:52.150Z,5.90
2022-12-25T10:23:36.825Z,5.88
2022-12-25T10:26:03.589Z,5.95
2022-12-25T10:28:37.539Z,5.03
2022-12-25T10:31:18.709Z,5.70
2022-12-25T10:33:45.473Z,5.43
2022-12-25T10:36:11.848Z,5.78
2022-12-25T10:38:38.179Z,5.45
2022-12-25T10:41:18.901Z,6.30
2022-12-25T10:43:49.332Z,6.47
2022-12-25T10:46:17.132Z,6.50
2022-12-25T10:48:49.305Z,6.95
2022-12-25T10:51:30.485Z,6.13
2022-12-25T10:53:57.268Z,5.35
2022-12-25T10:56:23.927Z,5.93
2022-12-25T10:58:50.454Z,5.05
2022-12-25T11:01:17.050Z,5.85
2022-12-25T11:03:51.764Z,5.75
2022-12-25T11:06:30.764Z,6.00
2022-12-25T11:09:00.038Z,6.73
2022-12-25T11:11:28.129Z,6.10
2022-12-25T11:13:58.042Z,5.93
2022-12-25T11:16:31.653Z,6.03
2022-12-25T11:18:59.925Z,6.13
2022-12-25T11:21:29.657Z,8.67
2022-12-25T11:24:04.163Z,7.10
2022-12-25T11:26:49.808Z,6.97
2022-12-25T11:29:25.005Z,6.63
2022-12-25T11:31:54.880Z,6.90
2022-12-25T11:34:34.068Z,6.50
2022-12-25T11:37:14.110Z,7.55
2022-12-25T11:39:41.781Z,7.90
2022-12-25T11:42:40.649Z,7.53
2022-12-25T11:45:24.899Z,8.15
2022-12-25T11:48:04.303Z,8.88
2022-12-25T11:50:59.577Z,9.05
2022-12-25T11:53:36.227Z,8.48
2022-12-25T11:56:08.422Z,8.30
2022-12-25T11:58:43.226Z,8.32
2022-12-25T12:01:51.925Z,8.50
2022-12-25T12:04:42.655Z,8.85
2022-12-25T12:07:26.639Z,8.23
2022-12-25T12:10:05.179Z,9.52
2022-12-25T12:12:49.089Z,10.50
2022-12-25T12:15:35.915Z,9.50
2022-12-25T12:18:19.334Z,10.35
2022-12-25T12:20:57.377Z,9.52
2022-12-25T12:23:24.743Z,10.38
2022-12-25T12:25:52.930Z,10.70
2022-12-25T12:28:29.021Z,9.63
2022-12-25T12:31:06.146Z,9.98
2022-12-25T12:33:40.348Z,10.43
2022-12-25T12:36:13.597Z,9.73
2022-12-25T12:38:42.901Z,11.25
2022-12-25T12:41:11.354Z,13.52
2022-12-25T12:43:45.121Z,11.35
2022-12-25T12:46:26.085Z,12.18
2022-12-25T12:49:19.851Z,11.75
2022-12-25T12:51:46.261Z,12.50
2022-12-25T12:54:21.680Z,13.85
2022-12-25T12:57:02.952Z,12.13
2022-12-25T12:59:39.887Z,13.95
2022-12-25T13:02:12.634Z,12.88
2022-12-25T13:04:52.461Z,12.43
2022-12-25T13:07:42.474Z,12.95
2022-12-25T13:10:23.646Z,11.48
2022-12-25T13:12:56.510Z,12.35
2022-12-25T13:15:26.990Z,11.93
2022-12-25T13:18:03.851Z,11.35
2022-12-25T13:20:50.385Z,13.93
2022-12-25T13:23:25.613Z,11.75
2022-12-25T13:25:54.376Z,12.35
2022-12-25T13:28:25.977Z,11.55
2022-12-25T13:30:52.431Z,11.85
2022-12-25T13:33:19.316Z,11.10
2022-12-25T13:35:46.792Z,10.98
2022-12-25T13:38:17.786Z,11.48
2022-12-25T13:40:52.894Z,11.57
2022-12-25T13:43:19.344Z,10.90
2022-12-25T13:45:54.486Z,11.02
2022-12-25T13:48:21.105Z,11.57
2022-12-25T13:50:57.435Z,12.20
2022-12-25T13:53:23.901Z,12.75
2022-12-25T13:55:52.281Z,11.82
2022-12-25T13:58:31.342Z,11.50
2022-12-25T14:00:59.918Z,13.25
2022-12-25T14:03:41.248Z,13.15
2022-12-25T14:06:27.694Z,12.73
2022-12-25T14:08:56.138Z,12.75
2022-12-25T14:11:25.055Z,14.73
2022-12-25T14:13:56.324Z,14.15
2022-12-25T14:16:23.675Z,14.55
2022-12-25T14:18:52.198Z,13.05
2022-12-25T14:21:27.408Z,14.48
2022-12-25T14:23:54.337Z,12.35
2022-12-25T14:26:24.293Z,13.63
2022-12-25T14:28:54.787Z,13.52
2022-12-25T14:31:23.320Z,14.10
2022-12-25T14:33:51.320Z,13.50
2022-12-25T14:36:18.044Z,17.17
2022-12-25T14:38:44.507Z,18.02
2022-12-25T14:41:26.290Z,21.55
2022-12-25T14:43:54.935Z,16.02
2022-12-25T14:46:26.697Z,18.90
2022-12-25T14:49:06.841Z,26.52
2022-12-25T14:51:38.087Z,19.85
2022-12-25T14:54:15.492Z,17.33
2022-12-25T14:56:47.994Z,15.98
2022-12-25T14:59:19.091Z,13.85
2022-12-25T15:01:52.057Z,13.75
2022-12-25T15:04:19.797Z,14.32
2022-12-25T15:07:04.160Z,14.38
2022-12-25T15:09:30.482Z,12.93
2022-12-25T15:11:56.983Z,12.13
2022-12-25T15:14:25.071Z,12.35
2022-12-25T15:16:55.132Z,12.10
2022-12-25T15:19:33.188Z,12.68
2022-12-25T15:22:03.553Z,11.43
2022-12-25T15:24:29.954Z,13.10
2022-12-25T15:26:56.295Z,14.82
2022-12-25T15:29:44.517Z,13.90
2022-12-25T15:32:17.458Z,12.90
2022-12-25T15:34:43.754Z,14.65
2022-12-25T15:37:10.124Z,15.82
2022-12-25T15:39:36.492Z,14.65
2022-12-25T15:42:02.932Z,15.05
2022-12-25T15:44:29.333Z,17.10
2022-12-25T15:46:55.767Z,18.92
2022-12-25T15:49:22.117Z,16.95
2022-12-25T15:51:48.802Z,14.55
2022-12-25T15:54:15.245Z,14.65
2022-12-25T15:56:53.572Z,15.98
2022-12-25T15:59:21.119Z,17.40
2022-12-25T16:01:59.079Z,16.98
2022-12-25T16:04:26.699Z,18.92
2022-12-25T16:06:54.232Z,16.08
2022-12-25T16:09:21.546Z,17.85
2022-12-25T16:11:49.311Z,17.73
2022-12-25T16:14:15.856Z,22.13
2022-12-25T16:16:42.333Z,24.10
2022-12-25T16:19:08.688Z,19.85
2022-12-25T16:21:42.132Z,19.80
2022-12-25T16:24:08.973Z,23.73
2022-12-25T16:26:35.664Z,18.17
2022-12-25T16:29:07.005Z,19.05
2022-12-25T16:31:35.290Z,20.67
2022-12-25T16:34:01.755Z,18.13
2022-12-25T16:36:28.096Z,16.95
2022-12-25T16:38:54.449Z,16.63
2022-12-25T16:41:21.090Z,18.92
2022-12-25T16:43:47.875Z,15.98
2022-12-25T16:46:16.745Z,16.65
2022-12-25T16:48:43.371Z,15.98
2022-12-25T16:51:11.271Z,15.88
2022-12-25T16:53:38.187Z,17.48
2022-12-25T16:56:07.231Z,17.27
2022-12-25T16:58:33.655Z,17.50
2022-12-25T17:01:14.881Z,16.85
2022-12-25T17:03:41.513Z,16.13
2022-12-25T17:06:19.972Z,18.33
2022-12-25T17:08:47.161Z,17.58
2022-12-25T17:11:14.405Z,17.63
2022-12-25T17:13:40.829Z,20.90
2022-12-25T17:16:13.971Z,17.92
2022-12-25T17:18:40.418Z,17.88
2022-12-25T17:21:07.214Z,18.02
2022-12-25T17:23:34.014Z,18.45
2022-12-25T17:26:01.249Z,17.58
2022-12-25T17:28:27.752Z,17.00
2022-12-25T17:30:54.346Z,16.90
2022-12-25T17:33:20.846Z,17.17
2022-12-25T17:35:47.114Z,17.10
2022-12-25T17:38:13.463Z,20.13
2022-12-25T17:40:39.738Z,19.33
2022-12-25T17:43:06.154Z,19.23
2022-12-25T17:45:32.576Z,18.50
2022-12-25T17:47:58.899Z,18.85
2022-12-25T17:50:25.349Z,19.85
2022-12-25T17:52:52.472Z,17.65
2022-12-25T17:55:18.995Z,17.70
2022-12-25T17:57:45.601Z,17.77
2022-12-25T18:00:12.534Z,22.17
2022-12-25T18:02:39.101Z,21.52
2022-12-25T18:05:06.055Z,21.65
2022-12-25T18:07:32.595Z,20.60
2022-12-25T18:09:58.907Z,21.88
2022-12-25T18:12:25.352Z,19.05
2022-12-25T18:14:51.701Z,19.77
2022-12-25T18:17:18.012Z,17.88
2022-12-25T18:19:44.393Z,19.08
2022-12-25T18:22:10.751Z,18.88
2022-12-25T18:24:37.642Z,18.45
2022-12-25T18:27:04.042Z,19.23
2022-12-25T18:29:30.374Z,17.70
2022-12-25T18:31:56.767Z,17.13
2022-12-25T18:34:23.161Z,18.08
2022-12-25T18:36:49.507Z,17.63
2022-12-25T18:39:15.874Z,17.50
2022-12-25T18:41:42.274Z,19.08
2022-12-25T18:44:08.606Z,16.85
2022-12-25T18:46:34.904Z,16.98
2022-12-25T18:49:01.208Z,15.40
2022-12-25T18:51:33.081Z,18.85
2022-12-25T18:54:03.009Z,21.30
2022-12-25T18:56:29.412Z,20.63
2022-12-25T18:58:55.909Z,20.60
2022-12-25T19:01:23.968Z,19.83
2022-12-25T19:03:51.755Z,18.73
2022-12-25T19:06:21.056Z,18.35
2022-12-25T19:08:48.465Z,18.63
2022-12-25T19:11:14.949Z,17.83
2022-12-25T19:13:41.341Z,18.20
2022-12-25T19:16:07.855Z,18.48
2022-12-25T19:18:34.335Z,16.08
2022-12-25T19:21:02.707Z,17.75
2022-12-25T19:23:29.216Z,16.38
2022-12-25T19:25:55.719Z,18.05
2022-12-25T19:28:22.064Z,19.10
2022-12-25T19:30:48.402Z,19.80
2022-12-25T19:33:17.871Z,21.15
2022-12-25T19:35:44.605Z,17.63
2022-12-25T19:38:11.013Z,18.83
2022-12-25T19:40:39.626Z,18.00
2022-12-25T19:43:06.418Z,16.48
2022-12-25T19:45:33.124Z,15.68
2022-12-25T19:47:59.591Z,16.25
2022-12-25T19:50:26.010Z,14.43
2022-12-25T19:52:52.309Z,15.27
2022-12-25T19:55:18.649Z,14.55
2022-12-25T19:57:44.961Z,14.80
2022-12-25T20:00:11.528Z,13.85
2022-12-25T20:02:38.040Z,13.88
2022-12-25T20:05:04.810Z,14.63
2022-12-25T20:07:31.105Z,15.10
2022-12-25T20:09:57.375Z,14.57
2022-12-25T20:12:23.803Z,14.75
2022-12-25T20:14:50.201Z,12.88
2022-12-25T20:17:16.540Z,15.00
2022-12-25T20:19:42.976Z,13.65
2022-12-25T20:22:09.285Z,14.73
2022-12-25T20:24:35.631Z,14.95
2022-12-25T20:27:01.967Z,14.00
2022-12-25T20:29:28.349Z,13.95
2022-12-25T20:31:54.677Z,14.80
2022-12-25T20:34:21.199Z,14.35
2022-12-25T20:36:47.602Z,15.90
2022-12-25T20:39:13.967Z,15.20
2022-12-25T20:41:40.947Z,15.25
2022-12-25T20:44:07.733Z,15.38
2022-12-25T20:46:34.419Z,15.23
2022-12-25T20:49:02.095Z,15.15
2022-12-25T20:51:28.415Z,14.88
2022-12-25T20:53:55.331Z,15.43
2022-12-25T20:56:24.095Z,17.58
2022-12-25T20:58:56.046Z,17.27
2022-12-25T21:01:22.866Z,16.63
2022-12-25T21:03:49.518Z,16.45
2022-12-25T21:06:15.979Z,15.55
2022-12-25T21:08:42.473Z,16.80
2022-12-25T21:11:09.453Z,16.70
2022-12-25T21:13:39.032Z,17.85
2022-12-25T21:16:07.048Z,17.45
2022-12-25T21:18:33.709Z,15.90
2022-12-25T21:21:00.516Z,16.23
2022-12-25T21:23:28.496Z,17.08
2022-12-25T21:25:54.854Z,17.00
2022-12-25T21:28:22.843Z,15.95
2022-12-25T21:30:49.182Z,15.10
2022-12-25T21:33:17.228Z,15.18
2022-12-25T21:35:43.757Z,13.93
2022-12-25T21:38:10.265Z,13.27
2022-12-25T21:40:37.396Z,13.32
2022-12-25T21:43:03.980Z,12.20
2022-12-25T21:45:30.775Z,12.43
2022-12-25T21:47:59.896Z,13.57
2022-12-25T21:50:29.195Z,13.23
2022-12-25T21:52:55.611Z,13.27
2022-12-25T21:55:21.940Z,13.43
2022-12-25T21:57:48.261Z,13.73
2022-12-25T22:00:14.730Z,14.23
2022-12-25T22:02:41.269Z,13.98
2022-12-25T22:05:07.844Z,15.10
2022-12-25T22:07:34.164Z,15.55
2022-12-25T22:10:00.582Z,15.85
2022-12-25T22:12:33.511Z,15.32
2022-12-25T22:15:01.153Z,15.00
2022-12-25T22:17:29.941Z,15.40
2022-12-25T22:19:56.515Z,15.35
2022-12-25T22:22:25.748Z,15.75
2022-12-25T22:24:54.401Z,14.60
2022-12-25T22:27:21.295Z,16.20
2022-12-25T22:29:47.962Z,15.75
2022-12-25T22:32:15.191Z,15.65
2022-12-25T22:34:41.884Z,15.63
2022-12-25T22:37:12.886Z,14.95
2022-12-25T22:39:39.149Z,15.18
2022-12-25T22:42:05.536Z,15.65
2022-12-25T22:44:33.183Z,15.23
2022-12-25T22:46:59.834Z,15.75
2022-12-25T22:49:26.427Z,15.32
2022-12-25T22:51:53.400Z,14.93
2022-12-25T22:54:22.937Z,15.30
2022-12-25T22:56:51.765Z,15.75
2022-12-25T22:59:20.213Z,16.10
2022-12-25T23:01:47.357Z,15.82
2022-12-25T23:04:13.788Z,16.40
2022-12-25T23:06:40.529Z,15.30
2022-12-25T23:09:08.376Z,14.95
2022-12-25T23:11:36.528Z,16.25
2022-12-25T23:14:03.047Z,15.50
2022-12-25T23:16:29.656Z,16.08
2022-12-25T23:18:56.209Z,17.88
2022-12-25T23:21:24.977Z,16.52
2022-12-25T23:23:51.374Z,16.38
2022-12-25T23:26:20.646Z,15.85
2022-12-25T23:28:47.135Z,15.52
2022-12-25T23:31:13.656Z,15.90
2022-12-25T23:33:39.977Z,15.57
2022-12-25T23:36:06.580Z,16.88
2022-12-25T23:38:32.935Z,16.85
2022-12-25T23:40:59.441Z,15.48
2022-12-25T23:43:25.809Z,16.50
2022-12-25T23:45:52.207Z,15.35
2022-12-25T23:48:18.554Z,17.23
2022-12-25T23:50:44.861Z,16.73
2022-12-25T23:53:11.221Z,16.75
2022-12-25T23:55:37.766Z,16.10
2022-12-25T23:58:05.005Z,16.08
